AUA24L LOWI-LIPZ
Flight info
| Callsign | AUA24L |
|---|---|
| Flight time | 0h 35m |
| Altitude | 19000 |
| Route | BRENO M726 NAXAV M736 ADOSA L612 UPXUF/N0365F130 L612 ALBET |
| Aircraft | A319/M-SDE3FGHIRWY/LB1 |
Departure
| Time | 2026-05-06 19:14 |
|---|---|
| Airport | Innsbruck Airport (LOWI) |
Arrival
| Time | 2026-05-06 19:49 |
|---|---|
| Airport | Venice Marco Polo Airport (LIPZ) |
| Time | Latitude | Longitude | Altitude | Speed | Heading |
|---|---|---|---|---|---|
| 2026-05-06 18:36 | 47.25814 | 11.34993 | 1907 ft | 0 kts | 170° |
| 2026-05-06 18:53 | 47.25829 | 11.35109 | 1899 ft | 0 kts | 171° |
| 2026-05-06 18:54 | 47.25842 | 11.35228 | 1900 ft | 0 kts | 171° |
| 2026-05-06 19:01 | 47.25858 | 11.35224 | 1881 ft | 4 kts | 177° |
| 2026-05-06 19:02 | 47.25884 | 11.35228 | 1907 ft | 4 kts | 205° |
| 2026-05-06 19:02 | 47.25899 | 11.35249 | 1894 ft | 2 kts | 260° |
| 2026-05-06 19:02 | 47.25899 | 11.35251 | 1895 ft | 0 kts | 261° |
| 2026-05-06 19:06 | 47.25899 | 11.35249 | 1894 ft | 1 kts | 261° |
| 2026-05-06 19:06 | 47.25896 | 11.35217 | 1894 ft | 7 kts | 261° |
| 2026-05-06 19:06 | 47.25883 | 11.35095 | 1907 ft | 16 kts | 261° |
| 2026-05-06 19:06 | 47.25865 | 11.34928 | 1907 ft | 17 kts | 261° |
| 2026-05-06 19:07 | 47.25846 | 11.34753 | 1904 ft | 18 kts | 261° |
| 2026-05-06 19:07 | 47.25826 | 11.34573 | 1907 ft | 18 kts | 261° |
| 2026-05-06 19:07 | 47.25811 | 11.34434 | 1907 ft | 12 kts | 261° |
| 2026-05-06 19:07 | 47.25797 | 11.34313 | 1907 ft | 12 kts | 261° |
| 2026-05-06 19:08 | 47.25784 | 11.34187 | 1901 ft | 13 kts | 261° |
| 2026-05-06 19:08 | 47.25771 | 11.34054 | 1907 ft | 13 kts | 267° |
| 2026-05-06 19:08 | 47.25783 | 11.33945 | 1898 ft | 4 kts | 290° |
| 2026-05-06 19:08 | 47.25786 | 11.33933 | 1902 ft | 0 kts | 293° |
| 2026-05-06 19:09 | 47.25788 | 11.33928 | 1896 ft | 1 kts | 294° |
| 2026-05-06 19:09 | 47.25795 | 11.33908 | 1897 ft | 3 kts | 301° |
| 2026-05-06 19:10 | 47.25811 | 11.33875 | 1901 ft | 0 kts | 306° |
| 2026-05-06 19:12 | 47.25821 | 11.33856 | 1902 ft | 9 kts | 306° |
| 2026-05-06 19:12 | 47.25881 | 11.33733 | 1908 ft | 16 kts | 306° |
| 2026-05-06 19:13 | 47.25930 | 11.33588 | 1908 ft | 17 kts | 269° |
| 2026-05-06 19:13 | 47.25904 | 11.33367 | 1901 ft | 26 kts | 259° |
| 2026-05-06 19:13 | 47.25842 | 11.33139 | 1904 ft | 15 kts | 259° |
| 2026-05-06 19:13 | 47.25881 | 11.33102 | 1906 ft | 11 kts | 68° |
| 2026-05-06 19:14 | 47.25922 | 11.33474 | 1896 ft | 81 kts | 81° |
| 2026-05-06 19:14 | 47.26051 | 11.34725 | 1925 ft | 160 kts | 90° |
| 2026-05-06 19:14 | 47.26219 | 11.36323 | 2873 ft | 153 kts | 80° |
| 2026-05-06 19:14 | 47.26512 | 11.37811 | 3766 ft | 153 kts | 79° |
| 2026-05-06 19:15 | 47.26321 | 11.39265 | 4666 ft | 142 kts | 124° |
| 2026-05-06 19:15 | 47.25564 | 11.40191 | 5406 ft | 152 kts | 159° |
| 2026-05-06 19:15 | 47.24472 | 11.40537 | 6019 ft | 169 kts | 172° |
| 2026-05-06 19:15 | 47.23248 | 11.40827 | 6641 ft | 186 kts | 172° |
| 2026-05-06 19:16 | 47.21975 | 11.41088 | 7290 ft | 187 kts | 173° |
| 2026-05-06 19:16 | 47.20687 | 11.41484 | 7950 ft | 192 kts | 166° |
| 2026-05-06 19:16 | 47.19378 | 11.42067 | 8511 ft | 204 kts | 167° |
| 2026-05-06 19:16 | 47.17948 | 11.42494 | 9071 ft | 215 kts | 172° |
| 2026-05-06 19:17 | 47.16409 | 11.42690 | 9638 ft | 228 kts | 185° |
| 2026-05-06 19:17 | 47.14818 | 11.42292 | 10236 ft | 241 kts | 193° |
| 2026-05-06 19:17 | 47.13090 | 11.41812 | 10719 ft | 264 kts | 190° |
| 2026-05-06 19:17 | 47.11211 | 11.41410 | 11283 ft | 281 kts | 188° |
| 2026-05-06 19:18 | 47.09223 | 11.41104 | 11908 ft | 295 kts | 187° |
| 2026-05-06 19:18 | 47.07117 | 11.40793 | 12396 ft | 315 kts | 191° |
| 2026-05-06 19:18 | 47.04882 | 11.40252 | 12733 ft | 335 kts | 191° |
| 2026-05-06 19:18 | 47.02544 | 11.39733 | 13395 ft | 343 kts | 190° |
| 2026-05-06 19:19 | 47.00160 | 11.39214 | 14123 ft | 348 kts | 190° |
| 2026-05-06 19:19 | 46.97750 | 11.38687 | 14736 ft | 352 kts | 190° |
| 2026-05-06 19:19 | 46.95316 | 11.38209 | 15498 ft | 354 kts | 189° |
| 2026-05-06 19:19 | 46.92861 | 11.37788 | 16223 ft | 357 kts | 188° |
| 2026-05-06 19:20 | 46.90371 | 11.37392 | 16915 ft | 362 kts | 188° |
| 2026-05-06 19:20 | 46.87858 | 11.37006 | 17700 ft | 365 kts | 188° |
| 2026-05-06 19:20 | 46.85318 | 11.36617 | 18400 ft | 369 kts | 188° |
| 2026-05-06 19:20 | 46.82755 | 11.36216 | 18755 ft | 370 kts | 188° |
| 2026-05-06 19:21 | 46.80193 | 11.35805 | 18869 ft | 376 kts | 188° |
| 2026-05-06 19:21 | 46.77530 | 11.35379 | 18887 ft | 395 kts | 188° |
| 2026-05-06 19:21 | 46.74757 | 11.35024 | 18888 ft | 403 kts | 187° |
| 2026-05-06 19:21 | 46.71941 | 11.34732 | 18900 ft | 407 kts | 186° |
| 2026-05-06 19:22 | 46.69112 | 11.34475 | 18893 ft | 407 kts | 186° |
| 2026-05-06 19:22 | 46.66286 | 11.34226 | 18896 ft | 407 kts | 186° |
| 2026-05-06 19:22 | 46.63457 | 11.33966 | 18897 ft | 407 kts | 186° |
| 2026-05-06 19:22 | 46.60638 | 11.33694 | 18884 ft | 407 kts | 186° |
| 2026-05-06 19:23 | 46.57806 | 11.33408 | 18897 ft | 408 kts | 186° |
| 2026-05-06 19:23 | 46.54976 | 11.33113 | 18891 ft | 408 kts | 186° |
| 2026-05-06 19:23 | 46.52144 | 11.32816 | 18890 ft | 408 kts | 186° |
| 2026-05-06 19:23 | 46.49318 | 11.32521 | 18887 ft | 407 kts | 186° |
| 2026-05-06 19:24 | 46.46512 | 11.32033 | 18887 ft | 405 kts | 193° |
| 2026-05-06 19:24 | 46.43810 | 11.30912 | 18880 ft | 404 kts | 200° |
| 2026-05-06 19:24 | 46.41188 | 11.29576 | 18880 ft | 404 kts | 200° |
| 2026-05-06 19:24 | 46.38467 | 11.28525 | 18925 ft | 405 kts | 195° |
| 2026-05-06 19:25 | 46.35719 | 11.27590 | 18936 ft | 406 kts | 195° |
| 2026-05-06 19:25 | 46.32964 | 11.26687 | 18938 ft | 406 kts | 192° |
| 2026-05-06 19:25 | 46.30128 | 11.26555 | 18904 ft | 412 kts | 176° |
| 2026-05-06 19:25 | 46.27304 | 11.27274 | 18915 ft | 413 kts | 173° |
| 2026-05-06 19:26 | 46.24472 | 11.28067 | 18927 ft | 413 kts | 173° |
| 2026-05-06 19:26 | 46.21655 | 11.28870 | 18929 ft | 413 kts | 173° |
| 2026-05-06 19:26 | 46.18829 | 11.29677 | 18930 ft | 413 kts | 173° |
| 2026-05-06 19:26 | 46.16006 | 11.30480 | 18949 ft | 414 kts | 173° |
| 2026-05-06 19:27 | 46.13186 | 11.31283 | 18941 ft | 413 kts | 173° |
| 2026-05-06 19:27 | 46.10362 | 11.32083 | 18946 ft | 414 kts | 173° |
| 2026-05-06 19:27 | 46.07541 | 11.32880 | 18954 ft | 414 kts | 173° |
| 2026-05-06 19:27 | 46.04717 | 11.33677 | 18955 ft | 414 kts | 173° |
| 2026-05-06 19:28 | 46.01891 | 11.34472 | 18959 ft | 414 kts | 173° |
| 2026-05-06 19:28 | 45.99071 | 11.35263 | 18952 ft | 413 kts | 173° |
| 2026-05-06 19:28 | 45.96247 | 11.36051 | 18948 ft | 413 kts | 173° |
| 2026-05-06 19:28 | 45.93422 | 11.36840 | 18947 ft | 413 kts | 173° |
| 2026-05-06 19:29 | 45.90596 | 11.37632 | 18944 ft | 414 kts | 173° |
| 2026-05-06 19:29 | 45.87767 | 11.38423 | 18949 ft | 414 kts | 173° |
| 2026-05-06 19:29 | 45.84939 | 11.39211 | 18948 ft | 414 kts | 173° |
| 2026-05-06 19:29 | 45.82114 | 11.39994 | 18934 ft | 414 kts | 173° |
| 2026-05-06 19:30 | 45.79280 | 11.40781 | 18934 ft | 415 kts | 173° |
| 2026-05-06 19:30 | 45.76454 | 11.41565 | 18866 ft | 410 kts | 173° |
| 2026-05-06 19:30 | 45.73684 | 11.42337 | 18154 ft | 403 kts | 173° |
| 2026-05-06 19:30 | 45.70944 | 11.43100 | 17334 ft | 399 kts | 173° |
| 2026-05-06 19:31 | 45.68233 | 11.43855 | 16577 ft | 395 kts | 173° |
| 2026-05-06 19:31 | 45.65552 | 11.44601 | 15860 ft | 391 kts | 172° |
| 2026-05-06 19:31 | 45.60299 | 11.46063 | 14562 ft | 383 kts | 172° |
| 2026-05-06 19:32 | 45.57672 | 11.46791 | 14135 ft | 373 kts | 172° |
| 2026-05-06 19:32 | 45.55215 | 11.47471 | 14009 ft | 356 kts | 172° |
| 2026-05-06 19:32 | 45.52821 | 11.48131 | 13791 ft | 337 kts | 172° |
| 2026-05-06 19:32 | 45.50585 | 11.48749 | 13252 ft | 328 kts | 172° |
| 2026-05-06 19:33 | 45.48362 | 11.49360 | 12523 ft | 324 kts | 172° |
| 2026-05-06 19:33 | 45.46189 | 11.50286 | 11897 ft | 327 kts | 162° |
| 2026-05-06 19:33 | 45.44069 | 11.51426 | 11325 ft | 325 kts | 162° |
| 2026-05-06 19:33 | 45.41957 | 11.52566 | 10769 ft | 324 kts | 162° |
| 2026-05-06 19:34 | 45.39855 | 11.53700 | 10199 ft | 323 kts | 162° |
| 2026-05-06 19:34 | 45.37819 | 11.55053 | 9627 ft | 326 kts | 148° |
| 2026-05-06 19:34 | 45.36246 | 11.57385 | 9042 ft | 332 kts | 125° |
| 2026-05-06 19:34 | 45.35374 | 11.60427 | 8594 ft | 331 kts | 109° |
| 2026-05-06 19:35 | 45.34490 | 11.63322 | 8460 ft | 310 kts | 128° |
| 2026-05-06 19:35 | 45.32981 | 11.65323 | 8318 ft | 288 kts | 154° |
| 2026-05-06 19:35 | 45.31146 | 11.66143 | 8098 ft | 272 kts | 175° |
| 2026-05-06 19:35 | 45.29275 | 11.66468 | 7724 ft | 270 kts | 176° |
| 2026-05-06 19:36 | 45.27419 | 11.66781 | 7327 ft | 268 kts | 176° |
| 2026-05-06 19:36 | 45.25568 | 11.67091 | 6917 ft | 267 kts | 176° |
| 2026-05-06 19:36 | 45.23724 | 11.67400 | 6482 ft | 266 kts | 176° |
| 2026-05-06 19:36 | 45.21940 | 11.67857 | 6330 ft | 257 kts | 162° |
| 2026-05-06 19:37 | 45.20417 | 11.69086 | 6205 ft | 249 kts | 142° |
| 2026-05-06 19:37 | 45.19304 | 11.70943 | 6090 ft | 247 kts | 129° |
| 2026-05-06 19:37 | 45.18289 | 11.72893 | 6027 ft | 245 kts | 129° |
| 2026-05-06 19:37 | 45.17622 | 11.74183 | 5986 ft | 244 kts | 129° |
| 2026-05-06 19:38 | 45.16289 | 11.76766 | 5528 ft | 242 kts | 129° |
| 2026-05-06 19:38 | 45.15319 | 11.78648 | 5396 ft | 231 kts | 129° |
| 2026-05-06 19:38 | 45.14392 | 11.80450 | 5259 ft | 222 kts | 129° |
| 2026-05-06 19:38 | 45.13510 | 11.82187 | 5138 ft | 213 kts | 126° |
| 2026-05-06 19:39 | 45.12967 | 11.84104 | 5012 ft | 209 kts | 102° |
| 2026-05-06 19:39 | 45.12982 | 11.86127 | 4856 ft | 205 kts | 78° |
| 2026-05-06 19:39 | 45.13533 | 11.87998 | 4435 ft | 214 kts | 55° |
| 2026-05-06 19:39 | 45.14599 | 11.89521 | 4060 ft | 219 kts | 40° |
| 2026-05-06 19:40 | 45.15753 | 11.90947 | 4020 ft | 222 kts | 42° |
| 2026-05-06 19:40 | 45.16912 | 11.92403 | 4030 ft | 223 kts | 42° |
| 2026-05-06 19:40 | 45.18074 | 11.93869 | 4031 ft | 223 kts | 42° |
| 2026-05-06 19:40 | 45.19235 | 11.95334 | 4026 ft | 223 kts | 42° |
| 2026-05-06 19:41 | 45.20397 | 11.96797 | 4023 ft | 223 kts | 42° |
| 2026-05-06 19:41 | 45.21558 | 11.98258 | 4027 ft | 223 kts | 42° |
| 2026-05-06 19:41 | 45.22718 | 11.99724 | 4025 ft | 223 kts | 42° |
| 2026-05-06 19:41 | 45.23877 | 12.01190 | 4020 ft | 223 kts | 42° |
| 2026-05-06 19:42 | 45.24645 | 12.02160 | 4026 ft | 222 kts | 42° |
| 2026-05-06 19:42 | 45.25793 | 12.03612 | 3769 ft | 221 kts | 42° |
| 2026-05-06 19:42 | 45.27315 | 12.05536 | 3368 ft | 222 kts | 42° |
| 2026-05-06 19:42 | 45.28465 | 12.06991 | 3108 ft | 221 kts | 42° |
| 2026-05-06 19:43 | 45.29611 | 12.08447 | 3016 ft | 221 kts | 42° |
| 2026-05-06 19:43 | 45.30760 | 12.09910 | 3025 ft | 222 kts | 42° |
| 2026-05-06 19:43 | 45.31912 | 12.11376 | 3026 ft | 222 kts | 42° |
| 2026-05-06 19:43 | 45.32691 | 12.12367 | 3029 ft | 223 kts | 42° |
| 2026-05-06 19:44 | 45.33843 | 12.13835 | 3026 ft | 223 kts | 43° |
| 2026-05-06 19:44 | 45.34976 | 12.15287 | 3021 ft | 212 kts | 42° |
| 2026-05-06 19:44 | 45.36038 | 12.16647 | 3015 ft | 199 kts | 42° |
| 2026-05-06 19:44 | 45.37030 | 12.17914 | 3016 ft | 184 kts | 43° |
| 2026-05-06 19:45 | 45.37940 | 12.19076 | 3026 ft | 177 kts | 43° |
| 2026-05-06 19:45 | 45.38853 | 12.20243 | 2789 ft | 175 kts | 43° |
| 2026-05-06 19:45 | 45.39745 | 12.21384 | 2562 ft | 170 kts | 43° |
| 2026-05-06 19:45 | 45.40621 | 12.22503 | 2342 ft | 168 kts | 43° |
| 2026-05-06 19:46 | 45.41459 | 12.23574 | 2129 ft | 156 kts | 43° |
| 2026-05-06 19:46 | 45.42247 | 12.24583 | 1917 ft | 150 kts | 43° |
| 2026-05-06 19:46 | 45.43009 | 12.25559 | 1734 ft | 146 kts | 43° |
| 2026-05-06 19:46 | 45.43761 | 12.26522 | 1535 ft | 144 kts | 43° |
| 2026-05-06 19:47 | 45.44505 | 12.27475 | 1337 ft | 144 kts | 43° |
| 2026-05-06 19:47 | 45.45239 | 12.28415 | 1147 ft | 141 kts | 42° |
| 2026-05-06 19:47 | 45.45961 | 12.29341 | 959 ft | 138 kts | 42° |
| 2026-05-06 19:47 | 45.46668 | 12.30247 | 779 ft | 136 kts | 41° |
| 2026-05-06 19:48 | 45.47367 | 12.31147 | 583 ft | 136 kts | 42° |
| 2026-05-06 19:48 | 45.48067 | 12.32055 | 339 ft | 137 kts | 42° |
| 2026-05-06 19:48 | 45.48780 | 12.32967 | 173 ft | 139 kts | 44° |
| 2026-05-06 19:48 | 45.49501 | 12.33888 | 38 ft | 139 kts | 43° |
| 2026-05-06 19:49 | 45.50164 | 12.34735 | 14 ft | 107 kts | 41° |
| 2026-05-06 19:49 | 45.50583 | 12.35272 | 11 ft | 51 kts | 41° |
| 2026-05-06 19:49 | 45.50744 | 12.35392 | 17 ft | 17 kts | 23° |
| 2026-05-06 19:49 | 45.50841 | 12.35434 | 15 ft | 9 kts | 12° |
| 2026-05-06 19:50 | 45.50887 | 12.35448 | 16 ft | 2 kts | 12° |
| 2026-05-06 19:50 | 45.50898 | 12.35451 | 16 ft | 2 kts | 11° |
| 2026-05-06 19:50 | 45.50910 | 12.35455 | 17 ft | 2 kts | 11° |
| 2026-05-06 19:50 | 45.50925 | 12.35457 | 17 ft | 3 kts | 2° |
| 2026-05-06 19:51 | 45.50949 | 12.35410 | 18 ft | 11 kts | 260° |
| 2026-05-06 19:51 | 45.50884 | 12.35309 | 16 ft | 15 kts | 221° |
| 2026-05-06 19:51 | 45.50802 | 12.35205 | 17 ft | 16 kts | 222° |
| 2026-05-06 19:51 | 45.50711 | 12.35086 | 12 ft | 19 kts | 222° |
| 2026-05-06 19:52 | 45.50615 | 12.34950 | 12 ft | 19 kts | 242° |
| 2026-05-06 19:52 | 45.50614 | 12.34782 | 14 ft | 16 kts | 291° |
| 2026-05-06 19:52 | 45.50686 | 12.34654 | 13 ft | 18 kts | 312° |
| 2026-05-06 19:52 | 45.50772 | 12.34517 | 12 ft | 19 kts | 312° |
| 2026-05-06 19:53 | 45.50867 | 12.34367 | 10 ft | 21 kts | 311° |
| 2026-05-06 19:53 | 45.50878 | 12.34230 | 11 ft | 16 kts | 221° |
| 2026-05-06 19:53 | 45.50789 | 12.34134 | 12 ft | 16 kts | 190° |
| 2026-05-06 19:53 | 45.50711 | 12.34226 | 13 ft | 13 kts | 131° |
| 2026-05-06 19:54 | 45.50654 | 12.34316 | 14 ft | 8 kts | 132° |
| 2026-05-06 19:54 | 45.50620 | 12.34315 | 14 ft | 0 kts | 229° |
| 2026-05-06 19:54 | 45.50617 | 12.34309 | 16 ft | 3 kts | 241° |
| 2026-05-06 19:54 | 45.50613 | 12.34242 | 14 ft | 7 kts | 267° |
| 2026-05-06 19:55 | 45.50612 | 12.34210 | 14 ft | 0 kts | 268° |